Chrisopigi Lady — A8EQ9 — position and weather

sailwx.info

Track history (hours):
 
Tides and Currents Weather Stations Pressure Air Temp Water Temp Dewpoint Dewpoint Depression Visibility Wind Speed Wind Dir Waves Ship Positions

Chrisopigi Lady

Last reported at 2016-Apr-25 02:30 UTC. Time now 2016-May-06 20:30 UTC.
Position N 22°06' E 114°23'.
Warning: this ship's position is 11 days out of date.

Length 260 m; draft 8.3 m.

Type: Ship (hazmat cat A). MMSI: 636012314.

Date/timePositionNaut miles runAvg speedWind from/ knotsBaromVisibWave heightAir tempDewpointWater temp
2016-Apr-25 02:30N 22°06' E 114°23'1311.0
2016-Apr-25 01:18N 22°12' E 114°10'911.7
2016-Apr-25 00:33N 22°20' E 114°05'3 0.1
2016-Apr-23 03:06N 22°21' E 114°02'5 8.7
2016-Apr-23 02:33N 22°18' E 114°06'9 6.8
2016-Apr-23 01:17N 22°10' E 114°10'2 0.1
2016-Apr-22 00:30N 22°09' E 114°08'10 0.9
2016-Apr-21 13:33N 22°08' E 114°19'  
2016-Apr-16 11:13N 34°01' E 134°56'812.4
2016-Apr-16 10:34N 34°09' E 134°57'1210.4
2016-Apr-16 09:26N 34°21' E 134°60'1112.3
2016-Apr-16 08:33N 34°29' E 135°09'1212.1
2016-Apr-16 07:33N 34°33' E 135°23'  
Track history (hours):
 
Tides and Currents Weather Stations Pressure Air Temp Water Temp Dewpoint Dewpoint Depression Visibility Wind Speed Wind Dir Waves Ship Positions

Chrisopigi Lady

Last reported at 2016-Apr-25 02:30 UTC. Time now 2016-May-06 20:30 UTC.
Position N 22°06' E 114°23'.
Warning: this ship's position is 11 days out of date.

Length 260 m; draft 8.3 m.

Type: Ship (hazmat cat A). MMSI: 636012314.

Date/timePositionNaut miles runAvg speedWind from/ knotsBaromVisibWave heightAir tempDewpointWater temp
2016-Apr-25 02:30N 22°06' E 114°23'1311.0
2016-Apr-25 01:18N 22°12' E 114°10'911.7
2016-Apr-25 00:33N 22°20' E 114°05'3 0.1
2016-Apr-23 03:06N 22°21' E 114°02'5 8.7
2016-Apr-23 02:33N 22°18' E 114°06'9 6.8
2016-Apr-23 01:17N 22°10' E 114°10'2 0.1
2016-Apr-22 00:30N 22°09' E 114°08'10 0.9
2016-Apr-21 13:33N 22°08' E 114°19'  
2016-Apr-16 11:13N 34°01' E 134°56'812.4
2016-Apr-16 10:34N 34°09' E 134°57'1210.4
2016-Apr-16 09:26N 34°21' E 134°60'1112.3
2016-Apr-16 08:33N 34°29' E 135°09'1212.1
2016-Apr-16 07:33N 34°33' E 135°23'  

Dump ship's entire track history